Terminal Aerodrome Forecast
Issued by NWS

Home | Current Version | Previous Version | Text Only | Print | Product List | Glossary On
Versions: 1 2 3 4 5 6 7 8 9 10 11 12 13 14 15 16 17 18 19 20 21 22 23 24 25 26 27 28 29 30
000
FTAK31 PAFA 231901 AAA
TAFAQT
TAF AMD
PAQT 231901Z 2319/2418 20005KT P6SM SCT002 SCT070
      TEMPO 2319/2321 BKN002
     FM240300 04007KT 6SM BR OVC007
     FM240600 10007KT 2SM BR BKN007=

USA.gov is the U.S. government's official web portal to all federal, state and local government web resources and services.